DAUH/HME METAR and TAF weather

Enter ICAO airport designator
Station Type Date Time Source
DAUH METAR 2021/04/14 20:00 UTC NOAA

DAUH 142000Z 05007KT CAVOK 25/M07 Q1013


Station Type Date Time Source
DAUH Decoded METAR 2021/04/14 20:00 UTC NOAA

Hassi-Messaoud, Algeria (DAUH) 31-40N 006-09E 142M
Apr 14, 2021 - 04:00 PM EDT / 2021.04.14 2000 UTC
Wind: from the NE (050 degrees) at 8 MPH (7 KT):0
Visibility: greater than 7 mile(s):0
Temperature: 77 F (25 C)
Dew Point: 19 F (-7 C)
Relative Humidity: 11%
Pressure (altimeter): 29.91 in. Hg (1013 hPa)
ob: DAUH 142000Z 05007KT CAVOK 25/M07 Q1013
cycle: 20

Station Type Date Time Source
DAUH TAF 2021/04/14 18:33 UTC NOAA

TAF DAUH 141700Z 1418/1518 10010KT 8000 NSC PROB40
TEMPO 1507/1512 12015G30KT

Example: see airport list